createdAt,value
2022-10-04T00:00:41.332Z,10.33
2022-10-04T00:03:21.922Z,10.34
2022-10-04T00:05:58.460Z,10.32
2022-10-04T00:08:43.423Z,10.29
2022-10-04T00:11:23.669Z,10.27
2022-10-04T00:14:00.161Z,10.27
2022-10-04T00:16:35.557Z,10.23
2022-10-04T00:19:40.214Z,10.20
2022-10-04T00:22:17.377Z,10.18
2022-10-04T00:25:21.276Z,10.14
2022-10-04T00:28:18.235Z,10.13
2022-10-04T00:31:16.859Z,10.10
2022-10-04T00:33:52.055Z,10.06
2022-10-04T00:36:48.101Z,10.06
2022-10-04T00:39:40.558Z,10.02
2022-10-04T00:42:32.779Z,10.00
2022-10-04T00:45:14.242Z,9.97
2022-10-04T00:48:12.614Z,9.96
2022-10-04T00:50:51.329Z,9.93
2022-10-04T00:53:41.048Z,9.91
2022-10-04T00:56:19.308Z,9.86
2022-10-04T00:59:26.140Z,9.86
2022-10-04T01:02:05.018Z,9.84
2022-10-04T01:04:46.960Z,9.81
2022-10-04T01:07:22.227Z,9.79
2022-10-04T01:09:58.682Z,9.82
2022-10-04T01:12:42.054Z,9.84
2022-10-04T01:15:24.543Z,9.82
2022-10-04T01:18:14.779Z,9.86
2022-10-04T01:20:54.640Z,9.88
2022-10-04T01:23:42.828Z,9.93
2022-10-04T01:26:41.540Z,10.00
2022-10-04T01:29:17.603Z,10.05
2022-10-04T01:31:52.047Z,10.11
2022-10-04T01:34:26.764Z,10.18
2022-10-04T01:37:01.360Z,10.30
2022-10-04T01:39:35.606Z,10.39
2022-10-04T01:42:12.012Z,10.50
2022-10-04T01:44:51.604Z,10.61
2022-10-04T01:47:31.385Z,10.74
2022-10-04T01:50:13.614Z,10.84
2022-10-04T01:52:53.094Z,10.93
2022-10-04T01:55:30.834Z,11.04
2022-10-04T01:58:11.039Z,11.12
2022-10-04T02:00:49.181Z,11.19
2022-10-04T02:03:28.942Z,11.25
2022-10-04T02:06:06.284Z,11.33
2022-10-04T02:08:41.968Z,11.37
2022-10-04T02:11:21.937Z,11.40
2022-10-04T02:13:56.446Z,11.43
2022-10-04T02:16:29.839Z,11.44
2022-10-04T02:19:05.123Z,11.48
2022-10-04T02:21:38.689Z,11.48
2022-10-04T02:24:12.628Z,11.49
2022-10-04T02:26:51.790Z,11.51
2022-10-04T02:29:24.667Z,11.48
2022-10-04T02:32:15.607Z,11.50
2022-10-04T02:34:49.375Z,11.46
2022-10-04T02:37:24.044Z,11.44
2022-10-04T02:40:04.347Z,11.43
2022-10-04T02:42:45.596Z,11.41
2022-10-04T02:45:23.270Z,11.36
2022-10-04T02:48:01.369Z,11.36
2022-10-04T02:50:37.551Z,11.33
2022-10-04T02:53:15.649Z,11.31
2022-10-04T02:55:49.525Z,11.29
2022-10-04T02:58:25.984Z,11.29
2022-10-04T03:01:01.044Z,11.30
2022-10-04T03:03:37.020Z,11.31
2022-10-04T03:06:14.152Z,11.35
2022-10-04T03:08:51.477Z,11.37
2022-10-04T03:11:28.813Z,11.42
2022-10-04T03:14:06.164Z,11.45
2022-10-04T03:16:41.884Z,11.49
2022-10-04T03:19:18.165Z,11.54
2022-10-04T03:21:54.329Z,11.58
2022-10-04T03:24:32.088Z,11.64
2022-10-04T03:27:07.980Z,11.69
2022-10-04T03:29:44.324Z,11.74
2022-10-04T03:32:19.586Z,11.76
2022-10-04T03:34:57.123Z,11.82
2022-10-04T03:37:33.392Z,11.85
2022-10-04T03:40:10.827Z,11.90
2022-10-04T03:42:46.055Z,11.96
2022-10-04T03:45:22.483Z,12.00
2022-10-04T03:48:00.322Z,12.04
2022-10-04T03:50:36.592Z,12.09
2022-10-04T03:53:13.865Z,12.12
2022-10-04T03:55:47.212Z,12.16
2022-10-04T03:58:21.892Z,12.21
2022-10-04T04:01:10.916Z,12.26
2022-10-04T04:03:55.329Z,12.28
2022-10-04T04:06:36.150Z,12.30
2022-10-04T04:09:10.611Z,12.33
2022-10-04T04:11:45.802Z,12.36
2022-10-04T04:14:25.909Z,12.39
2022-10-04T04:17:32.026Z,12.41
2022-10-04T04:20:14.606Z,12.44
2022-10-04T04:22:58.312Z,12.45
2022-10-04T04:25:35.988Z,12.47
2022-10-04T04:28:22.040Z,12.50
2022-10-04T04:30:59.637Z,12.49
2022-10-04T04:33:46.768Z,12.51
2022-10-04T04:36:19.657Z,12.51
2022-10-04T04:39:09.791Z,12.48
2022-10-04T04:41:45.834Z,12.48
2022-10-04T04:44:22.504Z,12.47
2022-10-04T04:47:00.733Z,12.50
2022-10-04T04:49:39.520Z,12.52
2022-10-04T04:52:18.310Z,12.52
2022-10-04T04:54:51.213Z,12.53
2022-10-04T04:57:24.427Z,12.54
2022-10-04T05:00:01.273Z,12.57
2022-10-04T05:02:36.791Z,12.59
2022-10-04T05:05:23.218Z,12.60
2022-10-04T05:08:14.478Z,12.63
2022-10-04T05:10:52.385Z,12.65
2022-10-04T05:13:32.839Z,12.69
2022-10-04T05:16:06.408Z,12.69
2022-10-04T05:18:39.402Z,12.71
2022-10-04T05:21:21.340Z,12.75
2022-10-04T05:23:56.164Z,12.76
2022-10-04T05:26:32.046Z,12.82
2022-10-04T05:29:11.886Z,12.84
2022-10-04T05:31:50.890Z,12.85
2022-10-04T05:34:27.206Z,12.85
2022-10-04T05:37:30.195Z,12.89
2022-10-04T05:40:17.972Z,12.91
2022-10-04T05:42:54.400Z,12.92
2022-10-04T05:45:29.776Z,12.93
2022-10-04T05:48:08.184Z,12.95
2022-10-04T05:50:43.425Z,12.96
2022-10-04T05:53:27.733Z,13.00
2022-10-04T05:56:17.424Z,13.02
2022-10-04T05:59:05.399Z,13.06
2022-10-04T06:01:48.420Z,13.08
2022-10-04T06:04:35.357Z,13.10
2022-10-04T06:07:20.258Z,13.11
2022-10-04T06:10:06.798Z,13.13
2022-10-04T06:12:53.729Z,13.13
2022-10-04T06:15:51.621Z,13.12
2022-10-04T06:18:44.124Z,13.13
2022-10-04T06:21:22.610Z,13.11
2022-10-04T06:24:03.206Z,13.14
2022-10-04T06:26:41.353Z,13.15
2022-10-04T06:29:21.554Z,13.20
2022-10-04T06:32:21.423Z,13.23
2022-10-04T06:35:09.496Z,13.27
2022-10-04T06:38:15.482Z,13.33
2022-10-04T06:41:16.834Z,13.38
2022-10-04T06:44:05.436Z,13.47
2022-10-04T06:46:48.986Z,13.54
2022-10-04T06:49:43.991Z,13.62
2022-10-04T06:53:01.436Z,13.69
2022-10-04T06:56:05.733Z,13.76
2022-10-04T06:58:55.529Z,13.82
2022-10-04T07:01:30.955Z,13.91
2022-10-04T07:04:23.870Z,14.00
2022-10-04T07:07:34.963Z,14.08
2022-10-04T07:10:25.365Z,14.19
2022-10-04T07:13:10.661Z,14.25
2022-10-04T07:15:50.125Z,14.33
2022-10-04T07:18:28.714Z,14.43
2022-10-04T07:21:08.465Z,14.50
2022-10-04T07:23:47.714Z,14.57
2022-10-04T07:26:30.487Z,14.62
2022-10-04T07:29:22.419Z,14.68
2022-10-04T07:32:05.704Z,14.71
2022-10-04T07:34:45.496Z,14.82
2022-10-04T07:37:21.148Z,14.91
2022-10-04T07:40:01.089Z,15.01
2022-10-04T07:42:46.760Z,15.12
2022-10-04T07:45:25.820Z,15.21
2022-10-04T07:48:06.461Z,15.31
2022-10-04T07:50:45.979Z,15.43
2022-10-04T07:53:25.746Z,15.54
2022-10-04T07:56:03.597Z,15.65
2022-10-04T07:58:47.665Z,15.75
2022-10-04T08:01:31.553Z,15.87
2022-10-04T08:04:17.267Z,15.97
2022-10-04T08:06:59.926Z,16.08
2022-10-04T08:09:50.774Z,16.16
2022-10-04T08:12:29.098Z,16.22
2022-10-04T08:15:26.567Z,16.27
2022-10-04T08:18:06.978Z,16.31
2022-10-04T08:20:48.039Z,16.35
2022-10-04T08:23:50.277Z,16.41
2022-10-04T08:26:49.213Z,16.48
2022-10-04T08:29:42.981Z,16.53
2022-10-04T08:32:28.357Z,16.59
2022-10-04T08:35:23.410Z,16.67
2022-10-04T08:38:14.692Z,16.73
2022-10-04T08:41:19.148Z,16.83
2022-10-04T08:44:24.562Z,16.89
2022-10-04T08:47:30.837Z,16.95
2022-10-04T08:50:46.585Z,17.05
2022-10-04T08:53:53.808Z,17.15
2022-10-04T08:56:48.388Z,17.25
2022-10-04T08:59:51.785Z,17.33
2022-10-04T09:03:09.382Z,17.43
2022-10-04T09:05:55.250Z,17.48
2022-10-04T09:09:07.205Z,17.55
2022-10-04T09:12:01.405Z,17.63
2022-10-04T09:15:02.116Z,17.73
2022-10-04T09:17:44.967Z,17.84
2022-10-04T09:20:38.324Z,17.97
2022-10-04T09:23:40.261Z,18.09
2022-10-04T09:26:22.113Z,18.20
2022-10-04T09:29:15.598Z,18.30
2022-10-04T09:32:22.597Z,18.40
2022-10-04T09:35:14.985Z,18.51
2022-10-04T09:38:38.988Z,18.61
2022-10-04T09:41:38.094Z,18.72
2022-10-04T09:44:40.353Z,18.79
2022-10-04T09:47:38.056Z,18.86
2022-10-04T09:50:37.400Z,18.92
2022-10-04T09:53:35.489Z,19.01
2022-10-04T09:56:31.460Z,19.08
2022-10-04T09:59:27.245Z,19.13
2022-10-04T10:02:31.846Z,19.16
2022-10-04T10:05:24.151Z,19.19
2022-10-04T10:08:09.270Z,19.20
2022-10-04T10:11:09.756Z,19.25
2022-10-04T10:14:15.987Z,19.27
2022-10-04T10:17:03.539Z,19.33
2022-10-04T10:20:16.745Z,19.39
2022-10-04T10:23:26.780Z,19.46
2022-10-04T10:26:30.303Z,19.52
2022-10-04T10:29:24.005Z,19.56
2022-10-04T10:32:12.368Z,19.59
2022-10-04T10:35:20.779Z,19.63
2022-10-04T10:38:07.972Z,19.67
2022-10-04T10:40:53.172Z,19.73
2022-10-04T10:43:42.209Z,19.79
2022-10-04T10:46:29.043Z,19.82
2022-10-04T10:49:27.388Z,19.85
2022-10-04T10:52:48.916Z,19.86
2022-10-04T10:55:33.234Z,19.87
2022-10-04T10:58:27.370Z,19.88
2022-10-04T11:01:16.770Z,19.87
2022-10-04T11:04:34.895Z,19.87
2022-10-04T11:07:43.338Z,19.83
2022-10-04T11:11:05.393Z,19.77
2022-10-04T11:14:13.886Z,19.69
2022-10-04T11:17:20.890Z,19.60
2022-10-04T11:20:30.012Z,19.51
2022-10-04T11:23:33.501Z,19.43
2022-10-04T11:26:39.115Z,19.37
2022-10-04T11:29:24.345Z,19.31
2022-10-04T11:32:32.789Z,19.30
2022-10-04T11:35:59.371Z,19.33
2022-10-04T11:38:49.137Z,19.39
2022-10-04T11:41:36.748Z,19.45
2022-10-04T11:44:53.248Z,19.53
2022-10-04T11:47:43.218Z,19.59
2022-10-04T11:50:30.207Z,19.64
2022-10-04T11:53:34.416Z,19.65
2022-10-04T11:56:21.603Z,19.65
2022-10-04T11:59:27.607Z,19.64
2022-10-04T12:02:26.932Z,19.57
2022-10-04T12:05:24.607Z,19.51
2022-10-04T12:08:10.387Z,19.45
2022-10-04T12:10:46.608Z,19.38
2022-10-04T12:13:45.759Z,19.31
2022-10-04T12:16:48.358Z,19.21
2022-10-04T12:19:52.650Z,19.13
2022-10-04T12:22:49.207Z,19.01
2022-10-04T12:25:58.389Z,18.91
2022-10-04T12:29:05.917Z,18.81
2022-10-04T12:31:45.423Z,18.71
2022-10-04T12:34:27.953Z,18.63
2022-10-04T12:37:16.527Z,18.58
2022-10-04T12:40:08.691Z,18.55
2022-10-04T12:42:49.193Z,18.54
2022-10-04T12:45:39.306Z,18.54
2022-10-04T12:48:34.307Z,18.54
2022-10-04T12:51:21.536Z,18.53
2022-10-04T12:54:05.278Z,18.52
2022-10-04T12:56:48.266Z,18.50
2022-10-04T12:59:40.228Z,18.51
2022-10-04T13:02:25.207Z,18.52
2022-10-04T13:05:11.709Z,18.52
2022-10-04T13:07:58.411Z,18.52
2022-10-04T13:10:45.708Z,18.52
2022-10-04T13:14:17.500Z,18.50
2022-10-04T13:19:57.258Z,18.54
2022-10-04T13:22:57.039Z,18.55
2022-10-04T13:26:03.760Z,18.57
2022-10-04T13:28:47.853Z,18.60
2022-10-04T13:31:32.934Z,18.61
2022-10-04T13:34:19.864Z,18.67
2022-10-04T13:37:05.033Z,18.74
2022-10-04T13:39:55.822Z,18.77
2022-10-04T13:43:00.261Z,18.82
2022-10-04T13:45:45.543Z,18.85
2022-10-04T13:48:31.051Z,18.86
2022-10-04T13:51:24.427Z,18.85
2022-10-04T13:54:29.322Z,18.84
2022-10-04T13:57:18.376Z,18.85
2022-10-04T13:59:56.410Z,18.85
2022-10-04T14:02:49.852Z,18.87
2022-10-04T14:06:06.601Z,18.88
2022-10-04T14:09:19.718Z,18.89
2022-10-04T14:12:09.206Z,18.89
2022-10-04T14:15:11.268Z,18.91
2022-10-04T14:18:02.521Z,18.89
2022-10-04T14:21:02.276Z,18.94
2022-10-04T14:24:06.067Z,18.94
2022-10-04T14:27:20.529Z,18.94
2022-10-04T14:30:08.224Z,18.92
2022-10-04T14:33:16.573Z,18.91
2022-10-04T14:35:55.980Z,18.89
2022-10-04T14:38:44.426Z,18.88
2022-10-04T14:42:06.996Z,18.87
2022-10-04T14:45:07.621Z,18.84
2022-10-04T14:48:19.021Z,18.82
2022-10-04T14:51:12.886Z,18.80
2022-10-04T14:53:55.983Z,18.77
2022-10-04T14:56:52.310Z,18.75
2022-10-04T14:59:43.004Z,18.74
2022-10-04T15:02:49.919Z,18.72
2022-10-04T15:05:41.238Z,18.73
2022-10-04T15:08:41.890Z,18.72
2022-10-04T15:11:19.163Z,18.72
2022-10-04T15:13:55.728Z,18.70
2022-10-04T15:16:38.500Z,18.68
2022-10-04T15:19:26.376Z,18.68
2022-10-04T15:22:09.093Z,18.65
2022-10-04T15:24:49.052Z,18.63
2022-10-04T15:27:39.344Z,18.61
2022-10-04T15:30:21.794Z,18.61
2022-10-04T15:33:22.700Z,18.63
2022-10-04T15:36:15.721Z,18.63
2022-10-04T15:38:57.274Z,18.64
2022-10-04T15:41:46.623Z,18.64
2022-10-04T15:44:44.105Z,18.65
2022-10-04T15:47:25.498Z,18.63
2022-10-04T15:50:26.126Z,18.62
2022-10-04T15:53:28.789Z,18.59
2022-10-04T15:56:11.891Z,18.55
2022-10-04T15:59:00.597Z,18.53
2022-10-04T16:01:51.083Z,18.51
2022-10-04T16:04:42.882Z,18.48
2022-10-04T16:07:40.347Z,18.46
2022-10-04T16:10:21.910Z,18.43
2022-10-04T16:13:18.641Z,18.39
2022-10-04T16:16:26.721Z,18.36
2022-10-04T16:19:11.030Z,18.36
2022-10-04T16:21:53.613Z,18.36
2022-10-04T16:24:40.941Z,18.34
2022-10-04T16:27:42.326Z,18.32
2022-10-04T16:30:28.699Z,18.28
2022-10-04T16:33:29.077Z,18.24
2022-10-04T16:36:10.081Z,18.20
2022-10-04T16:39:02.394Z,18.15
2022-10-04T16:41:40.711Z,18.08
2022-10-04T16:44:32.056Z,17.99
2022-10-04T16:47:22.368Z,17.90
2022-10-04T16:49:57.340Z,17.82
2022-10-04T16:52:48.155Z,17.73
2022-10-04T16:55:37.988Z,17.62
2022-10-04T16:58:50.237Z,17.49
2022-10-04T17:01:34.077Z,17.35
2022-10-04T17:04:29.669Z,17.27
2022-10-04T17:07:15.078Z,17.13
2022-10-04T17:09:49.839Z,16.97
2022-10-04T17:12:29.312Z,16.85
2022-10-04T17:15:41.321Z,16.71
2022-10-04T17:18:21.254Z,16.58
2022-10-04T17:21:01.447Z,16.47
2022-10-04T17:24:00.240Z,16.37
2022-10-04T17:26:52.867Z,16.28
2022-10-04T17:29:46.605Z,16.18
2022-10-04T17:32:25.871Z,16.05
2022-10-04T17:35:14.541Z,15.98
2022-10-04T17:37:56.725Z,15.89
2022-10-04T17:40:42.892Z,15.79
2022-10-04T17:43:24.268Z,15.70
2022-10-04T17:46:16.869Z,15.61
2022-10-04T17:49:14.057Z,15.53
2022-10-04T17:52:07.385Z,15.40
2022-10-04T17:55:05.217Z,15.31
2022-10-04T17:57:43.894Z,15.22
2022-10-04T18:00:18.723Z,15.15
2022-10-04T18:03:09.018Z,15.08
2022-10-04T18:05:50.624Z,15.01
2022-10-04T18:08:42.672Z,14.96
2022-10-04T18:11:22.034Z,14.88
2022-10-04T18:14:02.511Z,14.87
2022-10-04T18:16:50.147Z,14.79
2022-10-04T18:19:41.208Z,14.72
2022-10-04T18:22:16.434Z,14.64
2022-10-04T18:25:03.647Z,14.58
2022-10-04T18:27:52.426Z,14.54
2022-10-04T18:30:26.667Z,14.46
2022-10-04T18:33:00.028Z,14.43
2022-10-04T18:35:35.326Z,14.36
2022-10-04T18:38:27.365Z,14.34
2022-10-04T18:41:03.244Z,14.28
2022-10-04T18:43:50.902Z,14.28
2022-10-04T18:46:25.479Z,14.23
2022-10-04T18:49:04.806Z,14.21
2022-10-04T18:51:46.540Z,14.16
2022-10-04T18:54:29.141Z,14.12
2022-10-04T18:57:13.039Z,14.08
2022-10-04T19:00:16.610Z,14.04
2022-10-04T19:03:01.767Z,14.00
2022-10-04T19:05:44.808Z,13.98
2022-10-04T19:08:33.592Z,13.95
2022-10-04T19:11:10.745Z,13.92
2022-10-04T19:13:56.257Z,13.89
2022-10-04T19:16:43.245Z,13.85
2022-10-04T19:19:39.314Z,13.84
2022-10-04T19:22:27.809Z,13.81
2022-10-04T19:25:36.489Z,13.77
2022-10-04T19:28:19.740Z,13.74
2022-10-04T19:31:03.641Z,13.71
2022-10-04T19:33:52.149Z,13.69
2022-10-04T19:36:49.604Z,13.65
2022-10-04T19:39:37.621Z,13.63
2022-10-04T19:42:14.383Z,13.57
2022-10-04T19:44:58.283Z,13.57
2022-10-04T19:47:41.594Z,13.53
2022-10-04T19:50:33.381Z,13.49
2022-10-04T19:53:16.126Z,13.47
2022-10-04T19:55:55.887Z,13.43
2022-10-04T19:58:36.642Z,13.40
2022-10-04T20:01:12.495Z,13.35
2022-10-04T20:03:45.832Z,13.31
2022-10-04T20:06:26.154Z,13.29
2022-10-04T20:09:20.139Z,13.25
2022-10-04T20:11:54.130Z,13.19
2022-10-04T20:15:14.882Z,13.18
2022-10-04T20:17:49.399Z,13.13
2022-10-04T20:20:55.590Z,13.10
2022-10-04T20:23:56.690Z,13.05
2022-10-04T20:27:06.191Z,13.00
2022-10-04T20:30:01.841Z,12.96
2022-10-04T20:32:57.197Z,12.92
2022-10-04T20:36:14.267Z,12.88
2022-10-04T20:38:53.958Z,12.82
2022-10-04T20:42:22.661Z,12.78
2022-10-04T20:44:59.005Z,12.72
2022-10-04T20:47:46.384Z,12.71
2022-10-04T20:50:29.921Z,12.69
2022-10-04T20:53:06.855Z,12.67
2022-10-04T20:55:41.482Z,12.66
2022-10-04T20:58:28.804Z,12.67
2022-10-04T21:01:14.011Z,12.66
2022-10-04T21:03:46.995Z,12.67
2022-10-04T21:06:19.811Z,12.67
2022-10-04T21:08:54.393Z,12.68
2022-10-04T21:11:44.789Z,12.68
2022-10-04T21:14:24.087Z,12.69
2022-10-04T21:17:02.351Z,12.65
2022-10-04T21:19:53.755Z,12.66
2022-10-04T21:22:40.013Z,12.64
2022-10-04T21:25:39.785Z,12.63
2022-10-04T21:28:36.336Z,12.58
2022-10-04T21:31:09.258Z,12.55
2022-10-04T21:33:42.765Z,12.51
2022-10-04T21:36:16.082Z,12.50
2022-10-04T21:38:48.974Z,12.48
2022-10-04T21:41:22.004Z,12.46
2022-10-04T21:43:56.260Z,12.46
2022-10-04T21:46:29.212Z,12.44
2022-10-04T21:49:02.149Z,12.43
2022-10-04T21:51:36.332Z,12.41
2022-10-04T21:54:09.166Z,12.39
2022-10-04T21:56:42.019Z,12.37
2022-10-04T21:59:16.233Z,12.33
2022-10-04T22:01:49.277Z,12.26
2022-10-04T22:04:22.088Z,12.24
2022-10-04T22:06:54.881Z,12.19
2022-10-04T22:09:28.074Z,12.14
2022-10-04T22:12:01.163Z,12.13
2022-10-04T22:14:35.575Z,12.09
2022-10-04T22:17:08.629Z,12.06
2022-10-04T22:19:41.678Z,12.05
2022-10-04T22:22:16.155Z,12.03
2022-10-04T22:24:49.409Z,12.01
2022-10-04T22:27:22.889Z,11.97
2022-10-04T22:29:58.241Z,11.96
2022-10-04T22:32:31.499Z,11.94
2022-10-04T22:35:13.842Z,11.93
2022-10-04T22:37:47.032Z,11.88
2022-10-04T22:40:21.897Z,11.85
2022-10-04T22:42:56.892Z,11.83
2022-10-04T22:45:33.480Z,11.80
2022-10-04T22:48:13.197Z,11.77
2022-10-04T22:50:46.148Z,11.72
2022-10-04T22:53:22.576Z,11.71
2022-10-04T22:55:56.277Z,11.68
2022-10-04T22:58:29.146Z,11.67
2022-10-04T23:01:03.504Z,11.65
2022-10-04T23:03:38.244Z,11.62
2022-10-04T23:06:14.249Z,11.62
2022-10-04T23:08:47.151Z,11.60
2022-10-04T23:11:19.959Z,11.58
2022-10-04T23:13:52.940Z,11.56
2022-10-04T23:16:27.200Z,11.55
2022-10-04T23:19:03.128Z,11.53
2022-10-04T23:21:38.886Z,11.53
2022-10-04T23:24:17.583Z,11.52
2022-10-04T23:26:55.770Z,11.52
2022-10-04T23:29:32.971Z,11.51
2022-10-04T23:32:11.932Z,11.50
2022-10-04T23:34:47.442Z,11.46
2022-10-04T23:37:24.171Z,11.44
2022-10-04T23:39:57.057Z,11.41
2022-10-04T23:42:32.396Z,11.38
2022-10-04T23:45:17.344Z,11.38
2022-10-04T23:47:54.367Z,11.34
2022-10-04T23:50:30.677Z,11.30
2022-10-04T23:53:06.555Z,11.31
2022-10-04T23:55:41.710Z,11.26
2022-10-04T23:58:17.085Z,11.24
